Ault, Minnesota
Current Conditions -  °F | °C
As of 4:21 AM on Monday 22 Dec 2014 (Local Time) from KTWM Reporting Station
Overcast Overcast  
Wind Chill:   Ceiling: 300
Heat Index:   Visibility: 1.2mi
Dew Point: -1°   Wind: 1mph
Humidity: 81%   Direction: 150°SSE
Pressure: 29.71"   Gusts: NA
Location:  47.3998°N, 91.9141°W
Report Text: KTWM 221021Z AUTO 15001KT 1 1/4SM OVC003 02/M01 A2971 RMK AO2
Loading
Personal Weather Stations






























Interactive Weather Map New forecast layout! Learn more

10-Day Weather Forecast

Advertisements
Track Severe Weather on mobile